sensor_id;sensor_type;location;lat;lon;timestamp;temperature;humidity
60309;DHT22;50313;52.894;6.492;2023-01-01T00:00:05;13.30;99.90
60309;DHT22;50313;52.894;6.492;2023-01-01T00:02:32;13.20;99.90
60309;DHT22;50313;52.894;6.492;2023-01-01T00:04:57;13.10;99.90
60309;DHT22;50313;52.894;6.492;2023-01-01T00:07:23;13.10;99.90
60309;DHT22;50313;52.894;6.492;2023-01-01T00:09:49;13.00;99.90
60309;DHT22;50313;52.894;6.492;2023-01-01T00:12:33;13.00;99.90
60309;DHT22;50313;52.894;6.492;2023-01-01T00:14:58;13.00;99.90
60309;DHT22;50313;52.894;6.492;2023-01-01T00:17:24;13.00;99.90
60309;DHT22;50313;52.894;6.492;2023-01-01T00:19:50;12.90;99.90
60309;DHT22;50313;52.894;6.492;2023-01-01T00:22:16;12.90;99.90
60309;DHT22;50313;52.894;6.492;2023-01-01T00:24:42;12.90;99.90
60309;DHT22;50313;52.894;6.492;2023-01-01T00:27:08;12.90;99.90
60309;DHT22;50313;52.894;6.492;2023-01-01T00:29:33;12.90;99.90
60309;DHT22;50313;52.894;6.492;2023-01-01T00:31:59;12.80;99.90
60309;DHT22;50313;52.894;6.492;2023-01-01T00:34:25;12.90;99.90
60309;DHT22;50313;52.894;6.492;2023-01-01T00:36:50;12.80;99.90
60309;DHT22;50313;52.894;6.492;2023-01-01T00:39:16;12.90;99.90
60309;DHT22;50313;52.894;6.492;2023-01-01T00:41:42;12.90;99.90
60309;DHT22;50313;52.894;6.492;2023-01-01T00:44:08;12.90;99.90
60309;DHT22;50313;52.894;6.492;2023-01-01T00:46:33;13.00;99.90
60309;DHT22;50313;52.894;6.492;2023-01-01T00:48:59;13.00;99.90
60309;DHT22;50313;52.894;6.492;2023-01-01T00:51:25;13.20;99.90
60309;DHT22;50313;52.894;6.492;2023-01-01T00:53:51;13.10;99.90
60309;DHT22;50313;52.894;6.492;2023-01-01T00:56:16;13.10;99.90
60309;DHT22;50313;52.894;6.492;2023-01-01T00:58:42;13.20;99.90
60309;DHT22;50313;52.894;6.492;2023-01-01T01:01:09;13.20;99.90
60309;DHT22;50313;52.894;6.492;2023-01-01T01:03:37;13.20;99.90
60309;DHT22;50313;52.894;6.492;2023-01-01T01:08:34;13.20;99.90
60309;DHT22;50313;52.894;6.492;2023-01-01T01:11:20;13.30;99.90
60309;DHT22;50313;52.894;6.492;2023-01-01T01:13:47;13.30;99.90
60309;DHT22;50313;52.894;6.492;2023-01-01T01:16:31;13.30;99.90
60309;DHT22;50313;52.894;6.492;2023-01-01T01:19:00;13.40;99.90
60309;DHT22;50313;52.894;6.492;2023-01-01T01:21:28;13.30;99.90
60309;DHT22;50313;52.894;6.492;2023-01-01T01:23:59;13.30;99.90
60309;DHT22;50313;52.894;6.492;2023-01-01T01:26:28;13.30;99.90
60309;DHT22;50313;52.894;6.492;2023-01-01T01:28:54;13.30;99.90
60309;DHT22;50313;52.894;6.492;2023-01-01T01:31:22;13.40;99.90
60309;DHT22;50313;52.894;6.492;2023-01-01T01:33:49;13.30;99.90
60309;DHT22;50313;52.894;6.492;2023-01-01T01:36:16;13.30;99.90
60309;DHT22;50313;52.894;6.492;2023-01-01T01:38:42;13.30;99.90
60309;DHT22;50313;52.894;6.492;2023-01-01T01:41:08;13.30;99.90
60309;DHT22;50313;52.894;6.492;2023-01-01T01:46:16;13.20;99.90
60309;DHT22;50313;52.894;6.492;2023-01-01T01:48:45;13.20;99.90
60309;DHT22;50313;52.894;6.492;2023-01-01T01:51:14;13.10;99.90
60309;DHT22;50313;52.894;6.492;2023-01-01T01:53:44;13.20;99.90
60309;DHT22;50313;52.894;6.492;2023-01-01T01:56:14;13.10;99.90
60309;DHT22;50313;52.894;6.492;2023-01-01T01:58:40;13.10;99.90
60309;DHT22;50313;52.894;6.492;2023-01-01T02:01:06;13.10;99.90
60309;DHT22;50313;52.894;6.492;2023-01-01T02:03:37;13.10;99.90
60309;DHT22;50313;52.894;6.492;2023-01-01T02:06:05;13.10;99.90
60309;DHT22;50313;52.894;6.492;2023-01-01T02:08:33;13.10;99.90
60309;DHT22;50313;52.894;6.492;2023-01-01T02:10:59;13.10;99.90
60309;DHT22;50313;52.894;6.492;2023-01-01T02:13:25;13.10;99.90
60309;DHT22;50313;52.894;6.492;2023-01-01T02:15:54;13.10;99.90
60309;DHT22;50313;52.894;6.492;2023-01-01T02:18:51;13.10;99.90
60309;DHT22;50313;52.894;6.492;2023-01-01T02:21:25;13.10;99.90
60309;DHT22;50313;52.894;6.492;2023-01-01T02:32:09;13.20;99.90
60309;DHT22;50313;52.894;6.492;2023-01-01T02:34:44;13.20;99.90
60309;DHT22;50313;52.894;6.492;2023-01-01T02:37:13;13.20;99.90
60309;DHT22;50313;52.894;6.492;2023-01-01T02:39:45;13.30;99.90
60309;DHT22;50313;52.894;6.492;2023-01-01T02:42:12;13.30;99.90
60309;DHT22;50313;52.894;6.492;2023-01-01T02:44:41;13.20;99.90
60309;DHT22;50313;52.894;6.492;2023-01-01T02:47:12;13.20;99.90
60309;DHT22;50313;52.894;6.492;2023-01-01T02:49:46;13.30;99.90
60309;DHT22;50313;52.894;6.492;2023-01-01T02:52:27;13.30;99.90
60309;DHT22;50313;52.894;6.492;2023-01-01T03:00:56;13.20;99.90
60309;DHT22;50313;52.894;6.492;2023-01-01T03:03:44;13.40;99.90
60309;DHT22;50313;52.894;6.492;2023-01-01T03:09:11;13.50;99.90
60309;DHT22;50313;52.894;6.492;2023-01-01T03:11:55;13.50;99.90
60309;DHT22;50313;52.894;6.492;2023-01-01T03:17:10;13.60;99.90
60309;DHT22;50313;52.894;6.492;2023-01-01T03:19:41;13.70;99.90
60309;DHT22;50313;52.894;6.492;2023-01-01T03:22:13;13.70;99.90
60309;DHT22;50313;52.894;6.492;2023-01-01T03:25:13;13.70;99.90
60309;DHT22;50313;52.894;6.492;2023-01-01T03:27:48;13.80;99.90
60309;DHT22;50313;52.894;6.492;2023-01-01T03:30:17;13.80;99.90
60309;DHT22;50313;52.894;6.492;2023-01-01T03:32:53;13.80;99.90
60309;DHT22;50313;52.894;6.492;2023-01-01T03:35:42;13.80;99.90
60309;DHT22;50313;52.894;6.492;2023-01-01T03:38:10;13.80;99.90
60309;DHT22;50313;52.894;6.492;2023-01-01T03:40:38;13.80;99.90
60309;DHT22;50313;52.894;6.492;2023-01-01T03:43:12;13.80;99.90
60309;DHT22;50313;52.894;6.492;2023-01-01T03:45:42;13.80;99.90
60309;DHT22;50313;52.894;6.492;2023-01-01T03:48:10;13.90;99.90
60309;DHT22;50313;52.894;6.492;2023-01-01T03:50:51;13.90;99.90
60309;DHT22;50313;52.894;6.492;2023-01-01T03:53:55;13.90;99.90
60309;DHT22;50313;52.894;6.492;2023-01-01T04:01:36;13.90;99.90
60309;DHT22;50313;52.894;6.492;2023-01-01T04:04:04;13.80;99.90
60309;DHT22;50313;52.894;6.492;2023-01-01T04:06:32;13.80;99.90
60309;DHT22;50313;52.894;6.492;2023-01-01T04:08:59;13.70;99.90
60309;DHT22;50313;52.894;6.492;2023-01-01T04:11:27;13.80;99.90
60309;DHT22;50313;52.894;6.492;2023-01-01T04:16:56;13.80;99.90
60309;DHT22;50313;52.894;6.492;2023-01-01T04:19:22;13.80;99.90
60309;DHT22;50313;52.894;6.492;2023-01-01T04:21:47;13.80;99.90
60309;DHT22;50313;52.894;6.492;2023-01-01T04:24:13;13.80;99.90
60309;DHT22;50313;52.894;6.492;2023-01-01T04:26:42;13.80;99.90
60309;DHT22;50313;52.894;6.492;2023-01-01T04:29:07;13.80;99.90
60309;DHT22;50313;52.894;6.492;2023-01-01T04:31:34;13.70;99.90
60309;DHT22;50313;52.894;6.492;2023-01-01T04:34:00;13.50;99.90
60309;DHT22;50313;52.894;6.492;2023-01-01T04:36:26;13.40;99.90
60309;DHT22;50313;52.894;6.492;2023-01-01T04:38:52;13.30;99.90
60309;DHT22;50313;52.894;6.492;2023-01-01T04:41:18;13.20;99.90
60309;DHT22;50313;52.894;6.492;2023-01-01T04:43:47;13.20;99.90
60309;DHT22;50313;52.894;6.492;2023-01-01T04:46:19;13.20;99.90
60309;DHT22;50313;52.894;6.492;2023-01-01T04:48:46;13.10;99.90
60309;DHT22;50313;52.894;6.492;2023-01-01T04:51:13;13.10;99.90
60309;DHT22;50313;52.894;6.492;2023-01-01T04:53:40;13.10;99.90
60309;DHT22;50313;52.894;6.492;2023-01-01T04:56:08;13.10;99.90
60309;DHT22;50313;52.894;6.492;2023-01-01T04:58:35;13.00;99.90
60309;DHT22;50313;52.894;6.492;2023-01-01T05:01:01;13.00;99.90
60309;DHT22;50313;52.894;6.492;2023-01-01T05:03:27;13.10;99.90
60309;DHT22;50313;52.894;6.492;2023-01-01T05:06:00;13.10;99.90
60309;DHT22;50313;52.894;6.492;2023-01-01T05:08:35;13.10;99.90
60309;DHT22;50313;52.894;6.492;2023-01-01T05:11:05;13.10;99.90
60309;DHT22;50313;52.894;6.492;2023-01-01T05:13:33;13.20;99.90
60309;DHT22;50313;52.894;6.492;2023-01-01T05:16:02;13.30;99.90
60309;DHT22;50313;52.894;6.492;2023-01-01T05:18:28;13.30;99.90
60309;DHT22;50313;52.894;6.492;2023-01-01T05:21:01;13.30;99.90
60309;DHT22;50313;52.894;6.492;2023-01-01T05:23:28;13.20;99.90
60309;DHT22;50313;52.894;6.492;2023-01-01T05:25:54;13.20;99.90
60309;DHT22;50313;52.894;6.492;2023-01-01T05:28:20;13.20;99.90
60309;DHT22;50313;52.894;6.492;2023-01-01T05:30:48;13.20;99.90
60309;DHT22;50313;52.894;6.492;2023-01-01T05:33:14;13.10;99.90
60309;DHT22;50313;52.894;6.492;2023-01-01T05:35:40;13.10;99.90
60309;DHT22;50313;52.894;6.492;2023-01-01T05:38:05;13.10;99.90
60309;DHT22;50313;52.894;6.492;2023-01-01T05:40:31;13.10;99.90
60309;DHT22;50313;52.894;6.492;2023-01-01T05:42:57;13.00;99.90
60309;DHT22;50313;52.894;6.492;2023-01-01T05:45:22;13.00;99.90
60309;DHT22;50313;52.894;6.492;2023-01-01T05:47:48;12.90;99.90
60309;DHT22;50313;52.894;6.492;2023-01-01T05:50:14;13.00;99.90
60309;DHT22;50313;52.894;6.492;2023-01-01T05:52:39;13.00;99.90
60309;DHT22;50313;52.894;6.492;2023-01-01T05:55:05;13.00;99.90
60309;DHT22;50313;52.894;6.492;2023-01-01T05:57:31;13.00;99.90
60309;DHT22;50313;52.894;6.492;2023-01-01T05:59:57;13.00;99.90
60309;DHT22;50313;52.894;6.492;2023-01-01T06:02:23;13.10;99.90
60309;DHT22;50313;52.894;6.492;2023-01-01T06:04:48;12.90;99.90
60309;DHT22;50313;52.894;6.492;2023-01-01T06:07:14;12.90;99.90
60309;DHT22;50313;52.894;6.492;2023-01-01T06:09:40;12.90;99.90
60309;DHT22;50313;52.894;6.492;2023-01-01T06:12:06;12.80;99.90
60309;DHT22;50313;52.894;6.492;2023-01-01T06:14:32;12.70;99.90
60309;DHT22;50313;52.894;6.492;2023-01-01T06:16:58;12.70;99.90
60309;DHT22;50313;52.894;6.492;2023-01-01T06:19:23;12.70;99.90
60309;DHT22;50313;52.894;6.492;2023-01-01T06:21:49;12.70;99.90
60309;DHT22;50313;52.894;6.492;2023-01-01T06:24:15;12.70;99.90
60309;DHT22;50313;52.894;6.492;2023-01-01T06:26:40;12.70;99.90
60309;DHT22;50313;52.894;6.492;2023-01-01T06:29:06;12.60;99.90
60309;DHT22;50313;52.894;6.492;2023-01-01T06:31:32;12.60;99.90
60309;DHT22;50313;52.894;6.492;2023-01-01T06:33:57;12.60;99.90
60309;DHT22;50313;52.894;6.492;2023-01-01T06:36:24;12.60;99.90
60309;DHT22;50313;52.894;6.492;2023-01-01T06:38:52;12.60;99.90
60309;DHT22;50313;52.894;6.492;2023-01-01T06:41:21;12.50;99.90
60309;DHT22;50313;52.894;6.492;2023-01-01T06:43:47;12.60;99.90
60309;DHT22;50313;52.894;6.492;2023-01-01T06:46:16;12.50;99.90
60309;DHT22;50313;52.894;6.492;2023-01-01T06:48:43;12.50;99.90
60309;DHT22;50313;52.894;6.492;2023-01-01T06:51:13;12.50;99.90
60309;DHT22;50313;52.894;6.492;2023-01-01T06:53:40;12.40;99.90
60309;DHT22;50313;52.894;6.492;2023-01-01T06:56:06;12.40;99.90
60309;DHT22;50313;52.894;6.492;2023-01-01T06:58:32;12.30;99.90
60309;DHT22;50313;52.894;6.492;2023-01-01T07:03:37;12.20;99.90
60309;DHT22;50313;52.894;6.492;2023-01-01T07:06:03;12.20;99.90
60309;DHT22;50313;52.894;6.492;2023-01-01T07:08:29;12.20;99.90
60309;DHT22;50313;52.894;6.492;2023-01-01T07:10:55;12.10;99.90
60309;DHT22;50313;52.894;6.492;2023-01-01T07:13:23;12.20;99.90
60309;DHT22;50313;52.894;6.492;2023-01-01T07:15:49;12.20;99.90
60309;DHT22;50313;52.894;6.492;2023-01-01T07:18:14;12.20;99.90
60309;DHT22;50313;52.894;6.492;2023-01-01T07:20:40;12.30;99.90
60309;DHT22;50313;52.894;6.492;2023-01-01T07:23:07;12.20;99.90
60309;DHT22;50313;52.894;6.492;2023-01-01T07:25:32;12.20;99.90
60309;DHT22;50313;52.894;6.492;2023-01-01T07:27:58;12.10;99.90
60309;DHT22;50313;52.894;6.492;2023-01-01T07:30:24;12.10;99.90
60309;DHT22;50313;52.894;6.492;2023-01-01T07:32:56;12.10;99.90
60309;DHT22;50313;52.894;6.492;2023-01-01T07:35:21;12.10;99.90
60309;DHT22;50313;52.894;6.492;2023-01-01T07:37:47;12.10;99.90
60309;DHT22;50313;52.894;6.492;2023-01-01T07:40:13;12.00;99.90
60309;DHT22;50313;52.894;6.492;2023-01-01T07:42:38;12.10;99.90
60309;DHT22;50313;52.894;6.492;2023-01-01T07:45:05;12.10;99.90
60309;DHT22;50313;52.894;6.492;2023-01-01T07:47:31;12.00;99.90
60309;DHT22;50313;52.894;6.492;2023-01-01T07:49:57;12.00;99.90
60309;DHT22;50313;52.894;6.492;2023-01-01T07:52:23;12.00;99.90
60309;DHT22;50313;52.894;6.492;2023-01-01T07:54:49;12.00;99.90
60309;DHT22;50313;52.894;6.492;2023-01-01T07:57:14;12.00;99.90
60309;DHT22;50313;52.894;6.492;2023-01-01T07:59:40;11.90;99.90
60309;DHT22;50313;52.894;6.492;2023-01-01T08:02:06;11.90;99.90
60309;DHT22;50313;52.894;6.492;2023-01-01T08:04:32;11.90;99.90
60309;DHT22;50313;52.894;6.492;2023-01-01T08:06:57;11.80;99.90
60309;DHT22;50313;52.894;6.492;2023-01-01T08:09:23;11.80;99.90
60309;DHT22;50313;52.894;6.492;2023-01-01T08:11:49;11.90;99.90
60309;DHT22;50313;52.894;6.492;2023-01-01T08:14:17;11.80;99.90
60309;DHT22;50313;52.894;6.492;2023-01-01T08:16:42;11.90;99.90
60309;DHT22;50313;52.894;6.492;2023-01-01T08:19:08;11.80;99.90
60309;DHT22;50313;52.894;6.492;2023-01-01T08:21:34;11.80;99.90
60309;DHT22;50313;52.894;6.492;2023-01-01T08:23:59;11.80;99.90
60309;DHT22;50313;52.894;6.492;2023-01-01T08:26:30;11.80;99.90
60309;DHT22;50313;52.894;6.492;2023-01-01T08:28:57;11.80;99.90
60309;DHT22;50313;52.894;6.492;2023-01-01T08:31:24;11.70;99.90
60309;DHT22;50313;52.894;6.492;2023-01-01T08:33:50;11.70;99.90
60309;DHT22;50313;52.894;6.492;2023-01-01T08:36:15;11.70;99.90
60309;DHT22;50313;52.894;6.492;2023-01-01T08:38:42;11.70;99.90
60309;DHT22;50313;52.894;6.492;2023-01-01T08:41:08;11.70;99.90
60309;DHT22;50313;52.894;6.492;2023-01-01T08:43:34;11.80;99.90
60309;DHT22;50313;52.894;6.492;2023-01-01T08:46:00;11.70;99.90
60309;DHT22;50313;52.894;6.492;2023-01-01T08:48:25;11.60;99.90
60309;DHT22;50313;52.894;6.492;2023-01-01T08:50:55;11.60;99.90
60309;DHT22;50313;52.894;6.492;2023-01-01T08:53:21;11.60;99.90
60309;DHT22;50313;52.894;6.492;2023-01-01T08:55:57;11.60;99.90
60309;DHT22;50313;52.894;6.492;2023-01-01T08:58:23;11.60;99.90
60309;DHT22;50313;52.894;6.492;2023-01-01T09:00:49;11.60;99.90
60309;DHT22;50313;52.894;6.492;2023-01-01T09:03:15;11.60;99.90
60309;DHT22;50313;52.894;6.492;2023-01-01T09:05:41;11.60;99.90
60309;DHT22;50313;52.894;6.492;2023-01-01T09:08:14;11.60;99.90
60309;DHT22;50313;52.894;6.492;2023-01-01T09:10:41;11.60;99.90
60309;DHT22;50313;52.894;6.492;2023-01-01T09:13:11;11.60;99.90
60309;DHT22;50313;52.894;6.492;2023-01-01T09:15:38;11.60;99.90
60309;DHT22;50313;52.894;6.492;2023-01-01T09:18:05;11.60;99.90
60309;DHT22;50313;52.894;6.492;2023-01-01T09:20:31;11.60;99.90
60309;DHT22;50313;52.894;6.492;2023-01-01T09:22:56;11.60;99.90
60309;DHT22;50313;52.894;6.492;2023-01-01T09:25:22;11.60;99.90
60309;DHT22;50313;52.894;6.492;2023-01-01T09:27:48;11.60;99.90
60309;DHT22;50313;52.894;6.492;2023-01-01T09:30:14;11.60;99.90
60309;DHT22;50313;52.894;6.492;2023-01-01T09:32:39;11.60;99.90
60309;DHT22;50313;52.894;6.492;2023-01-01T09:35:06;11.60;99.90
60309;DHT22;50313;52.894;6.492;2023-01-01T09:37:31;11.60;99.90
60309;DHT22;50313;52.894;6.492;2023-01-01T09:39:58;11.60;99.90
60309;DHT22;50313;52.894;6.492;2023-01-01T09:42:48;11.60;99.90
60309;DHT22;50313;52.894;6.492;2023-01-01T09:45:29;11.60;99.90
60309;DHT22;50313;52.894;6.492;2023-01-01T09:48:03;11.60;99.90
60309;DHT22;50313;52.894;6.492;2023-01-01T09:50:38;11.60;99.90
60309;DHT22;50313;52.894;6.492;2023-01-01T09:55:55;11.60;99.90
60309;DHT22;50313;52.894;6.492;2023-01-01T09:58:32;11.50;99.90
60309;DHT22;50313;52.894;6.492;2023-01-01T10:01:36;11.60;99.90
60309;DHT22;50313;52.894;6.492;2023-01-01T10:04:24;11.60;99.90
60309;DHT22;50313;52.894;6.492;2023-01-01T10:09:53;11.50;99.90
60309;DHT22;50313;52.894;6.492;2023-01-01T10:12:44;11.50;99.90
60309;DHT22;50313;52.894;6.492;2023-01-01T10:15:17;11.50;99.90
60309;DHT22;50313;52.894;6.492;2023-01-01T10:17:47;11.40;99.90
60309;DHT22;50313;52.894;6.492;2023-01-01T10:20:36;11.50;99.90
60309;DHT22;50313;52.894;6.492;2023-01-01T10:25:41;11.50;99.90
60309;DHT22;50313;52.894;6.492;2023-01-01T10:28:23;11.40;99.90
60309;DHT22;50313;52.894;6.492;2023-01-01T10:30:52;11.40;99.90
60309;DHT22;50313;52.894;6.492;2023-01-01T10:33:21;11.50;99.90
60309;DHT22;50313;52.894;6.492;2023-01-01T10:35:53;11.50;99.90
60309;DHT22;50313;52.894;6.492;2023-01-01T10:38:24;11.50;99.90
60309;DHT22;50313;52.894;6.492;2023-01-01T10:40:52;11.60;99.90
60309;DHT22;50313;52.894;6.492;2023-01-01T10:43:20;11.60;99.90
60309;DHT22;50313;52.894;6.492;2023-01-01T10:45:51;11.60;99.90
60309;DHT22;50313;52.894;6.492;2023-01-01T10:48:26;11.60;99.90
60309;DHT22;50313;52.894;6.492;2023-01-01T10:51:00;11.60;99.90
60309;DHT22;50313;52.894;6.492;2023-01-01T10:53:42;11.70;99.90
60309;DHT22;50313;52.894;6.492;2023-01-01T10:56:12;11.70;99.90
60309;DHT22;50313;52.894;6.492;2023-01-01T10:58:48;11.70;99.90
60309;DHT22;50313;52.894;6.492;2023-01-01T11:01:30;11.70;99.90
60309;DHT22;50313;52.894;6.492;2023-01-01T11:04:04;11.80;99.90
60309;DHT22;50313;52.894;6.492;2023-01-01T11:06:43;11.80;99.90
60309;DHT22;50313;52.894;6.492;2023-01-01T11:09:26;11.80;99.90
60309;DHT22;50313;52.894;6.492;2023-01-01T11:12:03;11.80;99.90
60309;DHT22;50313;52.894;6.492;2023-01-01T11:14:42;11.90;99.90
60309;DHT22;50313;52.894;6.492;2023-01-01T11:17:20;11.90;99.90
60309;DHT22;50313;52.894;6.492;2023-01-01T11:19:48;11.90;99.90
60309;DHT22;50313;52.894;6.492;2023-01-01T11:22:34;11.90;99.90
60309;DHT22;50313;52.894;6.492;2023-01-01T11:25:02;11.80;99.90
60309;DHT22;50313;52.894;6.492;2023-01-01T11:27:28;11.80;99.90
60309;DHT22;50313;52.894;6.492;2023-01-01T11:32:46;11.90;99.90
60309;DHT22;50313;52.894;6.492;2023-01-01T11:35:21;11.90;99.90
60309;DHT22;50313;52.894;6.492;2023-01-01T11:37:48;12.00;99.90
60309;DHT22;50313;52.894;6.492;2023-01-01T11:40:34;12.00;99.90
60309;DHT22;50313;52.894;6.492;2023-01-01T11:43:03;12.00;99.90
60309;DHT22;50313;52.894;6.492;2023-01-01T11:45:34;12.10;99.90
60309;DHT22;50313;52.894;6.492;2023-01-01T11:48:05;12.10;99.90
60309;DHT22;50313;52.894;6.492;2023-01-01T11:50:38;12.20;99.90
60309;DHT22;50313;52.894;6.492;2023-01-01T12:04:01;12.30;99.90
60309;DHT22;50313;52.894;6.492;2023-01-01T12:07:07;12.30;99.90
60309;DHT22;50313;52.894;6.492;2023-01-01T12:12:04;12.40;99.90
60309;DHT22;50313;52.894;6.492;2023-01-01T12:14:43;12.40;99.90
60309;DHT22;50313;52.894;6.492;2023-01-01T12:20:02;12.40;99.90
60309;DHT22;50313;52.894;6.492;2023-01-01T12:22:29;12.30;99.90
60309;DHT22;50313;52.894;6.492;2023-01-01T12:24:56;12.30;99.90
60309;DHT22;50313;52.894;6.492;2023-01-01T12:27:42;12.30;99.90
60309;DHT22;50313;52.894;6.492;2023-01-01T12:30:20;12.20;99.90
60309;DHT22;50313;52.894;6.492;2023-01-01T12:38:36;12.20;99.90
60309;DHT22;50313;52.894;6.492;2023-01-01T12:47:03;12.10;99.90
60309;DHT22;50313;52.894;6.492;2023-01-01T12:49:55;12.10;99.90
60309;DHT22;50313;52.894;6.492;2023-01-01T13:00:19;12.10;99.90
60309;DHT22;50313;52.894;6.492;2023-01-01T13:02:51;12.10;99.90
60309;DHT22;50313;52.894;6.492;2023-01-01T13:05:35;12.10;99.90
60309;DHT22;50313;52.894;6.492;2023-01-01T13:08:03;12.10;99.90
60309;DHT22;50313;52.894;6.492;2023-01-01T13:10:44;12.10;99.90
60309;DHT22;50313;52.894;6.492;2023-01-01T13:13:12;12.10;99.90
60309;DHT22;50313;52.894;6.492;2023-01-01T13:20:45;12.20;99.90
60309;DHT22;50313;52.894;6.492;2023-01-01T13:34:32;12.00;99.90
60309;DHT22;50313;52.894;6.492;2023-01-01T13:45:41;11.90;99.90
60309;DHT22;50313;52.894;6.492;2023-01-01T14:03:13;11.80;99.90
60309;DHT22;50313;52.894;6.492;2023-01-01T14:05:54;11.80;99.90
60309;DHT22;50313;52.894;6.492;2023-01-01T14:08:33;11.80;99.90
60309;DHT22;50313;52.894;6.492;2023-01-01T14:11:00;11.80;99.90
60309;DHT22;50313;52.894;6.492;2023-01-01T14:13:38;11.80;99.90
60309;DHT22;50313;52.894;6.492;2023-01-01T14:16:07;11.80;99.90
60309;DHT22;50313;52.894;6.492;2023-01-01T14:18:45;11.70;99.90
60309;DHT22;50313;52.894;6.492;2023-01-01T14:21:18;11.70;99.90
60309;DHT22;50313;52.894;6.492;2023-01-01T14:23:47;11.70;99.90
60309;DHT22;50313;52.894;6.492;2023-01-01T14:26:16;11.60;99.90
60309;DHT22;50313;52.894;6.492;2023-01-01T14:28:43;11.60;99.90
60309;DHT22;50313;52.894;6.492;2023-01-01T14:31:21;11.60;99.90
60309;DHT22;50313;52.894;6.492;2023-01-01T14:33:47;11.60;99.90
60309;DHT22;50313;52.894;6.492;2023-01-01T14:38:52;11.50;99.90
60309;DHT22;50313;52.894;6.492;2023-01-01T14:41:29;11.60;99.90
60309;DHT22;50313;52.894;6.492;2023-01-01T14:46:30;11.50;99.90
60309;DHT22;50313;52.894;6.492;2023-01-01T14:49:00;11.50;99.90
60309;DHT22;50313;52.894;6.492;2023-01-01T14:51:29;11.40;99.90
60309;DHT22;50313;52.894;6.492;2023-01-01T14:54:01;11.40;99.90
60309;DHT22;50313;52.894;6.492;2023-01-01T14:56:33;11.40;99.90
60309;DHT22;50313;52.894;6.492;2023-01-01T14:59:11;11.40;99.90
60309;DHT22;50313;52.894;6.492;2023-01-01T15:01:38;11.40;99.90
60309;DHT22;50313;52.894;6.492;2023-01-01T15:04:20;11.40;99.90
60309;DHT22;50313;52.894;6.492;2023-01-01T15:06:58;11.40;99.90
60309;DHT22;50313;52.894;6.492;2023-01-01T15:09:24;11.40;99.90
60309;DHT22;50313;52.894;6.492;2023-01-01T15:11:55;11.30;99.90
60309;DHT22;50313;52.894;6.492;2023-01-01T15:14:35;11.30;99.90
60309;DHT22;50313;52.894;6.492;2023-01-01T15:17:16;11.20;99.90
60309;DHT22;50313;52.894;6.492;2023-01-01T15:19:45;11.20;99.90
60309;DHT22;50313;52.894;6.492;2023-01-01T15:22:46;11.20;99.90
60309;DHT22;50313;52.894;6.492;2023-01-01T15:25:12;11.10;99.90
60309;DHT22;50313;52.894;6.492;2023-01-01T15:27:38;11.10;99.90
60309;DHT22;50313;52.894;6.492;2023-01-01T15:30:05;11.10;99.90
60309;DHT22;50313;52.894;6.492;2023-01-01T15:32:33;11.10;99.90
60309;DHT22;50313;52.894;6.492;2023-01-01T15:35:02;11.00;99.90
60309;DHT22;50313;52.894;6.492;2023-01-01T15:37:47;11.00;99.90
60309;DHT22;50313;52.894;6.492;2023-01-01T15:42:44;10.90;99.90
60309;DHT22;50313;52.894;6.492;2023-01-01T15:45:21;10.90;99.90
60309;DHT22;50313;52.894;6.492;2023-01-01T15:47:49;10.90;99.90
60309;DHT22;50313;52.894;6.492;2023-01-01T15:50:31;10.80;99.90
60309;DHT22;50313;52.894;6.492;2023-01-01T15:53:01;10.80;99.90
60309;DHT22;50313;52.894;6.492;2023-01-01T15:55:33;10.80;99.90
60309;DHT22;50313;52.894;6.492;2023-01-01T15:58:01;10.80;99.90
60309;DHT22;50313;52.894;6.492;2023-01-01T16:00:29;10.80;99.90
60309;DHT22;50313;52.894;6.492;2023-01-01T16:03:10;10.80;99.90
60309;DHT22;50313;52.894;6.492;2023-01-01T16:05:45;10.80;99.90
60309;DHT22;50313;52.894;6.492;2023-01-01T16:08:12;10.80;99.90
60309;DHT22;50313;52.894;6.492;2023-01-01T16:10:37;10.70;99.90
60309;DHT22;50313;52.894;6.492;2023-01-01T16:13:03;10.70;99.90
60309;DHT22;50313;52.894;6.492;2023-01-01T16:15:29;10.80;99.90
60309;DHT22;50313;52.894;6.492;2023-01-01T16:17:55;10.70;99.90
60309;DHT22;50313;52.894;6.492;2023-01-01T16:20:20;10.70;99.90
60309;DHT22;50313;52.894;6.492;2023-01-01T16:22:47;10.70;99.90
60309;DHT22;50313;52.894;6.492;2023-01-01T16:25:17;10.70;99.90
60309;DHT22;50313;52.894;6.492;2023-01-01T16:27:43;10.60;99.90
60309;DHT22;50313;52.894;6.492;2023-01-01T16:30:09;10.70;99.90
60309;DHT22;50313;52.894;6.492;2023-01-01T16:32:35;10.60;99.90
60309;DHT22;50313;52.894;6.492;2023-01-01T16:35:03;10.70;99.90
60309;DHT22;50313;52.894;6.492;2023-01-01T16:37:30;10.70;99.90
60309;DHT22;50313;52.894;6.492;2023-01-01T16:39:56;10.60;99.90
60309;DHT22;50313;52.894;6.492;2023-01-01T16:42:23;10.60;99.90
60309;DHT22;50313;52.894;6.492;2023-01-01T16:44:49;10.60;99.90
60309;DHT22;50313;52.894;6.492;2023-01-01T16:47:15;10.60;99.90
60309;DHT22;50313;52.894;6.492;2023-01-01T16:49:41;10.70;99.90
60309;DHT22;50313;52.894;6.492;2023-01-01T16:52:07;10.60;99.90
60309;DHT22;50313;52.894;6.492;2023-01-01T16:54:32;10.60;99.90
60309;DHT22;50313;52.894;6.492;2023-01-01T16:57:00;10.60;99.90
60309;DHT22;50313;52.894;6.492;2023-01-01T16:59:26;10.60;99.90
60309;DHT22;50313;52.894;6.492;2023-01-01T17:01:52;10.60;99.90
60309;DHT22;50313;52.894;6.492;2023-01-01T17:04:17;10.70;99.90
60309;DHT22;50313;52.894;6.492;2023-01-01T17:06:43;10.70;99.90
60309;DHT22;50313;52.894;6.492;2023-01-01T17:09:09;10.70;99.90
60309;DHT22;50313;52.894;6.492;2023-01-01T17:11:35;10.70;99.90
60309;DHT22;50313;52.894;6.492;2023-01-01T17:14:08;10.70;99.90
60309;DHT22;50313;52.894;6.492;2023-01-01T17:16:35;10.80;99.90
60309;DHT22;50313;52.894;6.492;2023-01-01T17:19:01;10.80;99.90
60309;DHT22;50313;52.894;6.492;2023-01-01T17:21:27;10.80;99.90
60309;DHT22;50313;52.894;6.492;2023-01-01T17:23:52;10.90;99.90
60309;DHT22;50313;52.894;6.492;2023-01-01T17:26:20;10.90;99.90
60309;DHT22;50313;52.894;6.492;2023-01-01T17:28:48;10.80;99.90
60309;DHT22;50313;52.894;6.492;2023-01-01T17:31:19;10.90;99.90
60309;DHT22;50313;52.894;6.492;2023-01-01T17:33:45;10.90;99.90
60309;DHT22;50313;52.894;6.492;2023-01-01T17:36:13;10.90;99.90
60309;DHT22;50313;52.894;6.492;2023-01-01T17:38:39;10.90;99.90
60309;DHT22;50313;52.894;6.492;2023-01-01T17:41:08;10.90;99.90
60309;DHT22;50313;52.894;6.492;2023-01-01T17:43:37;10.90;99.90
60309;DHT22;50313;52.894;6.492;2023-01-01T17:46:09;10.90;99.90
60309;DHT22;50313;52.894;6.492;2023-01-01T17:48:36;10.90;99.90
60309;DHT22;50313;52.894;6.492;2023-01-01T17:51:01;10.90;99.90
60309;DHT22;50313;52.894;6.492;2023-01-01T17:53:28;10.90;99.90
60309;DHT22;50313;52.894;6.492;2023-01-01T17:55:54;10.90;99.90